Airfield :
LOGIN :

Register | Disclaimer

   EN    FR    IT 

 










Legend :    VFR   Marginal VFR   IFR   Intensive IFR   Very Intensive IFR
Visi :
Ceiling :
>= 8 km
>= 3000ft
5 to 8 km
1000 to 3000 ft
1500m to 5 km
500 to 1000 ft
800 to 1500m
200 to 500 ft
< 800m
< 200 ft
Symbols :   Thunderstorms  Fog  Heavy snow  Heavy precipitations  Wind > 20 kt
SIGMETs :     Misc.  Thunderstorms  Icing  Turbulence  Mountain Waves  Volcanic Ashes







- Airport Elevation : 39 ft


ETNH - Hohn AB

CURRENT METAR :
  • 200707Z 25007KT 5000 BR BKN007 SCT020CB 17/16 Q1007 RESHRA GRN GRN TEMPO YLO

EXPIRED METARs :
  • 200630Z 25006KT 4500 -SHRA BR BKN010 SCT020CB 18/16 Q1007 GRN GRN TEMPO YLO
  • 200520Z 21004KT 6000 BKN005 17/16 Q1006 YLO GRN TEMPO YLO
  • 200420Z 20003KT 6000 BKN008 16/15 Q1006 GRN GRN TEMPO YLO

TAF TAF ETNH
Valid from the 20 at 05:00 until the 20 at 17:00 UTC


200420Z 2005/2017 22008KT 7000 NSW BKN012 BKN120
TEMPO 2005/2008 VRB03KT 3500 BR BKN006
PROB30 2005/2008 VRB15G25KT 2000 TSRA BKN005 BKN020CB
BECMG 2008/2010 26010KT 9999 NSW SCT010 SCT120
TEMPO 2010/2017 27012G22KT 4000 SHRA BKN010 BKN030TCU
PROB30 2010/2017 VRB15G25KT 2000 TSRA BKN010 BKN020CB BY ETGL
No reported NOTAMs for that airfield.



MET'MAP, your aeronautical weather chart ! - Copyright ORBIFLY December 2007 - Disclaimer

ORBIFLY MET'MAP TEAM :

Programming & Development : Alexandra Zaïnal
Concept & Development : Baudouin d'Aumeries
Co-Development & Prog : Marc-Olivier Méhu
Technical & hardware support : Manuel Goepfert

Contact : metmap@orbifly.com




SOURCES & CREDITS :

   NOAA